Time;durP1;ratioP1;P1;durP2;ratioP2;P2;SDS_P1;SDS_P2;PMS_P1;PMS_P2;Temp;Humidity;BMP_temperature;BMP_pressure;BME280_temperature;BME280_humidity;BME280_pressure;Samples;Min_cycle;Max_cycle;Signal;HPM_P1;HPM_P2
2022/04/29 00:00:54;;;;;;;2.55;1.92;;;;;;;18.30;32.41;97204.03;5012623;28;20018;-30
2022/04/29 00:03:21;;;;;;;2.90;1.88;;;;;;;18.34;32.59;97203.91;5014193;28;20029;-30
2022/04/29 00:05:47;;;;;;;3.03;1.83;;;;;;;18.36;32.42;97206.94;5014331;28;20112;-30
2022/04/29 00:08:13;;;;;;;2.75;2.03;;;;;;;18.46;32.44;97199.47;5014272;28;20068;-29
2022/04/29 00:10:40;;;;;;;2.63;1.73;;;;;;;18.51;32.65;97201.59;5046035;28;20030;-30
2022/04/29 00:13:07;;;;;;;3.20;2.13;;;;;;;18.38;32.22;97199.03;5014248;28;20045;-31
2022/04/29 00:15:33;;;;;;;2.17;1.80;;;;;;;18.39;32.60;97205.28;5014040;28;20100;-29
2022/04/29 00:17:58;;;;;;;3.03;2.08;;;;;;;18.51;32.43;97191.38;5012917;28;20121;-31
2022/04/29 00:20:24;;;;;;;3.15;2.30;;;;;;;18.58;32.29;97201.31;5046030;28;20048;-30
2022/04/29 00:22:50;;;;;;;4.40;1.95;;;;;;;18.61;32.19;97203.13;5045864;28;20028;-30
2022/04/29 00:25:16;;;;;;;2.08;1.67;;;;;;;18.61;32.16;97192.16;5045615;28;20405;-30
2022/04/29 00:27:41;;;;;;;2.20;1.73;;;;;;;18.71;32.56;97196.41;5013724;28;20129;-29
2022/04/29 00:30:09;;;;;;;2.95;1.80;;;;;;;18.48;32.56;97194.28;5014037;28;20062;-32
2022/04/29 00:32:36;;;;;;;2.83;1.90;;;;;;;18.48;32.22;97191.53;5008904;28;20029;-30
2022/04/29 00:35:01;;;;;;;2.60;1.98;;;;;;;18.50;32.16;97205.56;5015674;28;20041;-30
2022/04/29 00:37:27;;;;;;;2.63;2.00;;;;;;;18.57;32.01;97197.00;5015795;28;20034;-29
2022/04/29 00:39:52;;;;;;;2.83;1.83;;;;;;;18.64;32.25;97199.47;5015512;28;20079;-30
2022/04/29 00:42:23;;;;;;;2.20;1.70;;;;;;;18.65;31.82;97192.75;5015705;28;20121;-33
2022/04/29 00:44:49;;;;;;;2.58;1.80;;;;;;;18.19;32.92;97187.28;5015548;28;20022;-30
2022/04/29 00:47:21;;;;;;;2.58;1.85;;;;;;;18.53;32.17;97190.91;5015214;28;20112;-29
2022/04/29 00:49:47;;;;;;;2.30;1.95;;;;;;;18.56;32.27;97187.22;5015686;28;20025;-30
2022/04/29 00:52:16;;;;;;;2.00;1.67;;;;;;;18.75;32.09;97182.50;5015545;28;20431;-30
2022/04/29 00:54:50;;;;;;;2.35;1.83;;;;;;;18.52;32.33;97190.16;5015290;28;20033;-30
2022/04/29 00:57:39;;;;;;;1.90;1.70;;;;;;;18.50;32.39;97189.09;5015515;28;20029;-30
2022/04/29 01:00:08;;;;;;;2.83;1.88;;;;;;;18.38;32.62;97190.78;5007921;28;20518;-30
2022/04/29 01:02:45;;;;;;;2.45;2.00;;;;;;;18.36;32.39;97189.72;5015281;28;20108;-30
2022/04/29 01:05:12;;;;;;;2.47;2.05;;;;;;;18.45;32.34;97192.44;5015390;28;20030;-31
2022/04/29 01:07:40;;;;;;;2.35;2.15;;;;;;;18.48;32.36;97188.78;5015340;28;20469;-30
2022/04/29 01:10:10;;;;;;;3.00;2.17;;;;;;;18.53;32.25;97188.16;5015217;28;20026;-31
2022/04/29 01:12:38;;;;;;;2.42;1.92;;;;;;;18.56;32.19;97192.72;5014742;28;20030;-30
2022/04/29 01:15:10;;;;;;;2.00;1.73;;;;;;;18.59;32.03;97187.09;5030104;28;20034;-30
2022/04/29 01:17:38;;;;;;;2.20;1.70;;;;;;;18.49;31.98;97193.81;5015032;28;20052;-31
2022/04/29 01:20:05;;;;;;;3.33;2.58;;;;;;;18.33;32.17;97196.13;5013600;28;20392;-30
2022/04/29 01:22:31;;;;;;;2.17;1.75;;;;;;;18.51;32.37;97185.88;5014875;28;20029;-30
2022/04/29 01:24:57;;;;;;;2.33;1.73;;;;;;;18.48;32.44;97197.03;5014670;28;20034;-30
2022/04/29 01:27:23;;;;;;;3.55;1.75;;;;;;;18.54;32.36;97193.22;5014802;28;20096;-29
2022/04/29 01:29:58;;;;;;;1.85;1.60;;;;;;;18.52;32.17;97198.41;5014962;28;20037;-29
2022/04/29 01:32:25;;;;;;;2.50;1.80;;;;;;;18.62;32.00;97197.19;5014944;28;20022;-30
2022/04/29 01:34:50;;;;;;;2.35;2.13;;;;;;;18.54;32.19;97206.19;5014662;28;20022;-30
2022/04/29 01:37:16;;;;;;;2.67;2.10;;;;;;;18.43;32.53;97211.34;5014594;28;20029;-30
2022/04/29 01:39:41;;;;;;;2.60;2.00;;;;;;;18.55;32.39;97202.94;5014701;28;20022;-29
2022/04/29 01:42:07;;;;;;;3.08;2.13;;;;;;;18.62;32.32;97202.69;5014608;28;20026;-31
2022/04/29 01:44:32;;;;;;;2.13;1.73;;;;;;;18.55;32.10;97199.44;5014463;28;20022;-30
2022/04/29 01:46:58;;;;;;;2.50;1.70;;;;;;;18.56;32.20;97196.25;5014265;28;20073;-29
2022/04/29 01:49:23;;;;;;;2.15;1.92;;;;;;;18.50;32.55;97200.06;5014437;28;20025;-30
2022/04/29 01:51:49;;;;;;;2.58;1.90;;;;;;;18.58;32.36;97195.81;5014283;28;20048;-29
2022/04/29 01:54:14;;;;;;;2.42;2.17;;;;;;;18.54;32.22;97201.44;5014442;28;20439;-31
2022/04/29 01:56:40;;;;;;;2.40;1.67;;;;;;;18.59;32.27;97191.84;5014376;28;20083;-30
2022/04/29 01:59:06;;;;;;;3.65;1.73;;;;;;;18.56;32.25;97190.75;5014443;28;20026;-33
2022/04/29 02:01:33;;;;;;;2.22;1.83;;;;;;;18.58;32.19;97184.81;5014206;28;20029;-29
2022/04/29 02:04:00;;;;;;;2.60;1.95;;;;;;;18.53;32.47;97186.19;5014216;28;20022;-29
2022/04/29 02:06:26;;;;;;;2.63;1.70;;;;;;;18.57;32.34;97188.75;5014078;28;20036;-30
2022/04/29 02:08:51;;;;;;;2.13;1.92;;;;;;;18.63;32.23;97192.44;5014200;28;20076;-29
2022/04/29 02:11:17;;;;;;;2.05;1.60;;;;;;;18.61;32.35;97192.16;5014041;28;20053;-32
2022/04/29 02:13:45;;;;;;;2.67;1.88;;;;;;;18.69;32.20;97187.84;5013907;28;20022;-30
2022/04/29 02:16:10;;;;;;;2.38;1.75;;;;;;;18.65;32.21;97192.75;5013992;28;20072;-31
2022/04/29 02:18:36;;;;;;;2.55;2.20;;;;;;;18.67;32.76;97192.31;5013847;28;20037;-30
2022/04/29 02:21:02;;;;;;;4.05;1.88;;;;;;;18.57;32.52;97188.75;5014223;28;20025;-29
2022/04/29 02:23:27;;;;;;;2.80;2.25;;;;;;;18.62;32.33;97194.44;5013441;28;20026;-29
2022/04/29 02:25:53;;;;;;;3.17;1.77;;;;;;;18.60;32.57;97194.13;5013896;28;20480;-30
2022/04/29 02:28:18;;;;;;;1.95;1.75;;;;;;;18.61;32.60;97190.16;5013609;28;20024;-30
2022/04/29 02:30:43;;;;;;;2.70;1.98;;;;;;;18.67;32.52;97184.78;5013842;28;20539;-30
2022/04/29 02:33:09;;;;;;;2.83;2.03;;;;;;;18.67;32.53;97184.78;5011819;28;20554;-30
2022/04/29 02:35:35;;;;;;;2.40;1.80;;;;;;;18.68;32.66;97194.56;4992176;28;20073;-30
2022/04/29 02:38:00;;;;;;;2.72;2.00;;;;;;;18.63;32.43;97192.44;5008417;28;20084;-29
2022/04/29 02:40:26;;;;;;;2.63;1.98;;;;;;;18.49;32.40;97187.56;5013471;28;20068;-30
2022/04/29 02:42:51;;;;;;;2.15;1.75;;;;;;;18.56;32.86;97195.47;5013517;28;20026;-31
2022/04/29 02:45:16;;;;;;;2.22;1.88;;;;;;;18.46;32.90;97191.22;5013388;28;20061;-30
2022/04/29 02:47:42;;;;;;;2.67;2.05;;;;;;;18.59;32.69;97192.59;5013306;28;20057;-30
2022/04/29 02:50:08;;;;;;;2.30;1.80;;;;;;;18.51;32.75;97185.13;5013697;28;20021;-30
2022/04/29 02:52:34;;;;;;;2.15;1.90;;;;;;;18.60;32.75;97185.13;5013615;28;20035;-29
2022/04/29 02:54:59;;;;;;;2.72;2.15;;;;;;;18.60;32.77;97190.63;5013590;28;20472;-30
2022/04/29 02:57:25;;;;;;;2.97;1.98;;;;;;;18.61;32.73;97183.91;5013537;28;20014;-30
2022/04/29 02:59:50;;;;;;;2.95;1.85;;;;;;;18.53;32.73;97177.19;5013436;28;20117;-30
2022/04/29 03:02:16;;;;;;;3.38;1.83;;;;;;;18.55;32.80;97175.47;5013535;28;20022;-30
2022/04/29 03:04:41;;;;;;;2.38;1.90;;;;;;;18.44;32.79;97171.69;5013432;28;20417;-30
2022/04/29 03:07:07;;;;;;;2.13;1.83;;;;;;;18.50;32.89;97173.38;5013241;28;20104;-30
2022/04/29 03:09:32;;;;;;;3.15;2.13;;;;;;;18.54;33.07;97171.25;5013332;28;20105;-32
2022/04/29 03:11:58;;;;;;;3.88;1.98;;;;;;;18.55;32.85;97174.72;5013549;28;20491;-33
2022/04/29 03:14:23;;;;;;;5.38;3.10;;;;;;;18.54;32.87;97173.97;5013136;28;20033;-32
2022/04/29 03:16:49;;;;;;;2.28;1.77;;;;;;;18.55;32.77;97174.72;5013281;28;20052;-30
2022/04/29 03:19:14;;;;;;;4.40;2.20;;;;;;;18.39;33.30;97167.59;5013265;28;20036;-29
2022/04/29 03:21:39;;;;;;;3.22;2.03;;;;;;;18.46;33.06;97174.75;5013255;28;20026;-29
2022/04/29 03:24:05;;;;;;;2.80;1.90;;;;;;;18.55;33.04;97177.47;5013312;28;20121;-30
2022/04/29 03:26:31;;;;;;;3.40;1.80;;;;;;;18.52;33.24;97181.16;5013167;28;20030;-32
2022/04/29 03:28:57;;;;;;;2.50;1.88;;;;;;;18.55;33.21;97180.22;5013275;28;20034;-31
2022/04/29 03:31:23;;;;;;;2.75;1.92;;;;;;;18.52;33.03;97181.16;5013189;28;20030;-30
2022/04/29 03:33:48;;;;;;;1.98;1.77;;;;;;;18.55;33.28;97178.22;5013436;28;20029;-30
2022/04/29 03:36:16;;;;;;;2.97;2.20;;;;;;;18.53;33.13;97183.44;5017006;28;20022;-30
2022/04/29 03:38:42;;;;;;;2.30;1.88;;;;;;;18.58;33.26;97179.31;5017013;28;20096;-30
2022/04/29 03:41:08;;;;;;;2.22;2.03;;;;;;;18.46;33.31;97172.00;5016970;28;20096;-29
2022/04/29 03:43:33;;;;;;;2.38;2.00;;;;;;;18.54;33.18;97173.22;5016693;28;20476;-30
2022/04/29 03:45:59;;;;;;;2.30;1.90;;;;;;;18.60;33.79;97171.38;5016671;28;20026;-29
2022/04/29 03:48:25;;;;;;;3.28;1.88;;;;;;;18.61;33.20;97167.41;5016532;28;20054;-30
2022/04/29 03:50:51;;;;;;;5.93;2.00;;;;;;;18.37;33.87;97174.75;5016547;28;20488;-30
2022/04/29 03:53:16;;;;;;;2.40;2.08;;;;;;;18.53;33.73;97177.19;5016728;28;20464;-30
2022/04/29 03:55:42;;;;;;;2.05;1.85;;;;;;;18.55;33.30;97180.97;5016638;28;20037;-29
2022/04/29 03:58:09;;;;;;;2.35;1.77;;;;;;;18.60;33.71;97182.38;5016415;28;20030;-30
2022/04/29 04:00:34;;;;;;;2.95;2.00;;;;;;;18.33;33.50;97179.63;5016660;28;20058;-30
2022/04/29 04:03:05;;;;;;;2.60;2.00;;;;;;;18.50;33.53;97183.59;5016359;28;20056;-30
2022/04/29 04:05:31;;;;;;;1.85;1.73;;;;;;;18.51;33.80;97176.88;5016298;28;20022;-33
2022/04/29 04:07:56;;;;;;;2.38;1.80;;;;;;;18.42;33.84;97180.38;5016349;28;20030;-30
2022/04/29 04:10:22;;;;;;;3.25;2.17;;;;;;;18.40;33.77;97173.84;5016344;28;20018;-29
2022/04/29 04:12:49;;;;;;;2.78;2.03;;;;;;;18.39;33.98;97172.31;5016276;28;20798;-30
2022/04/29 04:15:17;;;;;;;2.40;2.20;;;;;;;18.44;33.60;97169.69;5016320;28;20496;-30
2022/04/29 04:17:43;;;;;;;2.83;2.03;;;;;;;18.45;33.64;97168.47;5016175;28;20026;-31
2022/04/29 04:20:11;;;;;;;2.55;1.98;;;;;;;18.44;33.58;97171.69;5015991;28;20025;-32
2022/04/29 04:22:36;;;;;;;2.97;1.88;;;;;;;18.52;33.73;97172.91;5016139;28;20033;-29
2022/04/29 04:25:10;;;;;;;2.17;1.98;;;;;;;18.37;34.00;97174.75;5015792;28;20025;-30
2022/04/29 04:27:36;;;;;;;2.53;2.00;;;;;;;18.42;33.93;97182.41;5016149;28;20022;-30
2022/04/29 04:30:03;;;;;;;2.63;1.95;;;;;;;18.43;33.67;97178.41;5015994;28;20030;-30
2022/04/29 04:32:33;;;;;;;3.00;1.75;;;;;;;18.36;33.79;97175.97;5016019;28;20026;-30
2022/04/29 04:35:00;;;;;;;2.10;1.85;;;;;;;18.48;33.89;97172.31;5015811;28;20030;-29
2022/04/29 04:37:28;;;;;;;2.15;1.73;;;;;;;18.44;33.92;97168.94;5015865;28;20048;-30
2022/04/29 04:39:58;;;;;;;2.45;2.10;;;;;;;18.30;34.08;97175.81;5015714;28;20034;-30
2022/04/29 04:42:23;;;;;;;2.35;1.88;;;;;;;18.25;34.35;97170.97;5015700;28;20026;-30
2022/04/29 04:44:50;;;;;;;3.03;2.00;;;;;;;18.26;34.33;97181.50;5015346;28;20032;-29
2022/04/29 04:47:17;;;;;;;2.60;2.00;;;;;;;18.36;34.24;97178.72;5014878;28;20054;-30
2022/04/29 04:49:43;;;;;;;2.55;2.13;;;;;;;18.43;34.16;97179.16;5015605;28;20033;-31
2022/04/29 04:52:09;;;;;;;2.75;1.88;;;;;;;18.39;34.11;97186.06;5015625;28;20373;-30
2022/04/29 04:54:36;;;;;;;2.25;2.05;;;;;;;18.39;34.39;97189.56;5015840;28;20026;-29
2022/04/29 04:57:02;;;;;;;2.30;1.88;;;;;;;18.30;34.04;97187.56;5015284;28;20480;-30
2022/04/29 04:59:28;;;;;;;2.92;1.95;;;;;;;18.35;34.14;97188.94;5015298;28;20053;-30
2022/04/29 05:01:53;;;;;;;2.22;2.03;;;;;;;18.28;34.51;97201.03;5015462;28;20384;-30
2022/04/29 05:04:19;;;;;;;2.67;2.10;;;;;;;18.24;34.81;97191.41;5014015;28;20030;-30
2022/04/29 05:06:45;;;;;;;2.95;2.10;;;;;;;18.34;34.51;97197.63;5014891;28;20026;-30
2022/04/29 05:09:11;;;;;;;2.60;2.17;;;;;;;18.29;34.49;97201.78;5015166;28;20021;-30
2022/04/29 05:11:37;;;;;;;2.20;1.88;;;;;;;18.08;34.95;97202.69;5015092;28;20050;-30
2022/04/29 05:14:03;;;;;;;2.42;1.70;;;;;;;18.29;34.69;97202.53;5015123;28;20108;-30
2022/04/29 05:16:28;;;;;;;3.53;2.00;;;;;;;18.25;34.89;97207.41;5015217;28;20104;-30
2022/04/29 05:18:54;;;;;;;3.25;2.10;;;;;;;18.20;35.06;97208.00;5015135;28;20101;-31
2022/04/29 05:21:20;;;;;;;2.63;1.75;;;;;;;18.36;34.74;97211.69;5015204;28;20048;-30
2022/04/29 05:23:45;;;;;;;3.17;2.10;;;;;;;18.29;34.96;97208.03;5014736;28;20025;-30
2022/04/29 05:26:11;;;;;;;2.33;1.92;;;;;;;18.23;34.94;97214.59;5014927;28;20030;-29
2022/04/29 05:28:36;;;;;;;4.38;2.03;;;;;;;18.30;34.93;97209.53;5014726;28;20072;-30
2022/04/29 05:31:03;;;;;;;2.80;2.00;;;;;;;18.46;34.82;97213.19;5014885;28;20491;-30
2022/04/29 05:33:31;;;;;;;3.15;2.15;;;;;;;18.31;34.92;97210.31;5014927;28;20053;-30
2022/04/29 05:35:58;;;;;;;2.72;1.83;;;;;;;18.18;35.29;97215.19;5014548;28;20026;-30
2022/04/29 05:38:24;;;;;;;2.58;2.13;;;;;;;18.43;34.91;97219.59;5014636;28;20029;-30
2022/04/29 05:43:33;;;;;;;4.45;2.25;;;;;;;18.00;35.64;97218.69;5014571;28;20443;-30
2022/04/29 05:45:59;;;;;;;3.88;2.00;;;;;;;18.26;35.04;97210.94;5014529;28;20025;-30
2022/04/29 05:48:25;;;;;;;3.03;2.47;;;;;;;18.26;35.22;97225.41;5014262;28;20493;-29
2022/04/29 05:50:50;;;;;;;2.50;1.92;;;;;;;18.29;35.15;97227.25;5014654;28;20018;-31
2022/04/29 05:53:16;;;;;;;2.30;2.00;;;;;;;18.40;34.92;97215.03;4996256;28;20473;-30
2022/04/29 05:55:42;;;;;;;3.30;1.90;;;;;;;18.48;34.85;97219.00;4992856;28;20388;-30
2022/04/29 05:58:08;;;;;;;2.40;1.77;;;;;;;18.39;35.00;97213.50;4992643;28;20052;-29
2022/04/29 06:00:34;;;;;;;4.95;2.20;;;;;;;18.41;35.15;97222.06;4992666;28;20030;-29
2022/04/29 06:03:00;;;;;;;3.38;1.75;;;;;;;18.43;35.13;97217.63;4992681;28;20022;-30
2022/04/29 06:05:26;;;;;;;4.50;2.05;;;;;;;18.22;35.31;97219.31;4990132;28;20407;-30
2022/04/29 06:07:51;;;;;;;2.28;1.80;;;;;;;18.36;35.12;97226.19;4992687;28;20389;-30
2022/04/29 06:10:17;;;;;;;4.32;2.10;;;;;;;18.07;35.62;97223.88;4992563;28;20495;-30
2022/04/29 06:12:43;;;;;;;3.65;2.10;;;;;;;18.13;35.31;97222.06;4992422;28;20041;-30
2022/04/29 06:15:16;;;;;;;3.08;2.08;;;;;;;18.19;35.77;97225.72;4992369;28;20078;-30
2022/04/29 06:17:43;;;;;;;2.15;1.90;;;;;;;18.09;35.65;97224.19;4992430;28;20026;-30
2022/04/29 06:20:09;;;;;;;2.80;1.70;;;;;;;18.12;35.39;97225.25;4992464;28;20042;-31
2022/04/29 06:22:35;;;;;;;3.92;1.80;;;;;;;18.26;35.31;97222.69;4992225;28;20473;-31
2022/04/29 06:25:00;;;;;;;3.67;2.30;;;;;;;18.31;35.17;97226.78;4991713;28;20031;-30
2022/04/29 06:27:25;;;;;;;3.17;2.40;;;;;;;18.20;35.41;97227.22;4991804;28;20065;-29
2022/04/29 06:29:51;;;;;;;2.53;1.88;;;;;;;17.97;35.73;97224.31;5008389;28;20034;-30
2022/04/29 06:32:16;;;;;;;3.25;2.15;;;;;;;17.90;35.99;97222.66;5011845;28;20042;-30
2022/04/29 06:34:44;;;;;;;2.30;1.80;;;;;;;17.87;35.80;97229.03;5011819;28;20073;-30
2022/04/29 06:37:10;;;;;;;3.25;2.00;;;;;;;17.77;36.12;97233.75;5011933;28;20037;-30
2022/04/29 06:39:37;;;;;;;2.40;1.95;;;;;;;18.03;35.66;97223.28;5011646;28;20054;-29
2022/04/29 06:42:04;;;;;;;3.20;2.13;;;;;;;18.19;35.26;97233.19;5011605;28;20032;-30
2022/04/29 06:44:29;;;;;;;1.92;1.73;;;;;;;18.21;35.31;97225.25;5011200;28;20523;-30
2022/04/29 06:46:55;;;;;;;2.25;1.70;;;;;;;18.09;35.56;97231.66;5011390;28;20050;-30
2022/04/29 06:49:20;;;;;;;2.92;1.92;;;;;;;18.33;35.24;97231.81;5011661;28;20486;-30
2022/04/29 06:51:46;;;;;;;3.03;2.05;;;;;;;18.35;35.14;97232.88;5011018;28;20117;-30
2022/04/29 06:54:11;;;;;;;2.05;1.67;;;;;;;17.81;36.43;97231.63;5011044;28;20036;-30
2022/04/29 06:56:37;;;;;;;4.05;2.00;;;;;;;18.06;35.69;97238.81;5011507;28;20030;-30
2022/04/29 06:59:03;;;;;;;4.13;1.95;;;;;;;17.75;36.00;97229.94;5011605;28;20018;-30
2022/04/29 07:01:29;;;;;;;2.90;1.88;;;;;;;18.09;35.81;97226.94;5011093;28;20033;-30
2022/04/29 07:03:55;;;;;;;2.60;1.80;;;;;;;18.14;35.69;97225.56;5010965;28;20116;-30
2022/04/29 07:06:21;;;;;;;4.25;2.00;;;;;;;17.91;36.04;97221.44;5009730;28;20056;-31
2022/04/29 07:08:47;;;;;;;3.25;1.75;;;;;;;17.95;36.08;97227.53;5011068;28;20040;-30
2022/04/29 07:11:12;;;;;;;2.60;1.92;;;;;;;17.86;36.44;97233.00;5015230;28;20487;-29
2022/04/29 07:13:38;;;;;;;2.38;1.92;;;;;;;17.84;36.39;97225.22;5014887;28;20033;-30
2022/04/29 07:16:04;;;;;;;2.88;2.00;;;;;;;18.01;35.92;97225.72;5014781;28;20495;-30
2022/04/29 07:18:30;;;;;;;3.67;1.92;;;;;;;17.75;36.36;97218.97;4995777;28;20038;-30
2022/04/29 07:20:55;;;;;;;3.00;2.17;;;;;;;18.19;35.74;97224.94;5015166;28;20040;-29
2022/04/29 07:23:21;;;;;;;3.72;2.17;;;;;;;18.28;35.36;97228.47;5014868;28;20388;-30
2022/04/29 07:25:46;;;;;;;3.35;2.00;;;;;;;18.08;35.82;97221.91;5014955;28;20084;-30
2022/04/29 07:28:12;;;;;;;2.55;1.95;;;;;;;17.83;36.06;97223.69;5013485;28;20468;-30
2022/04/29 07:30:37;;;;;;;2.72;1.80;;;;;;;17.85;35.96;97221.25;5015176;28;20068;-29
2022/04/29 07:33:03;;;;;;;2.08;1.63;;;;;;;17.85;35.55;97223.25;5015108;28;20041;-30
2022/04/29 07:43:40;;;;;;;4.70;1.80;;;;;;;17.71;35.80;97208.13;5014851;28;20036;-29
2022/04/29 07:46:10;;;;;;;2.92;2.03;;;;;;;17.78;35.61;97215.31;5014685;28;20479;-29
2022/04/29 07:48:36;;;;;;;2.58;1.92;;;;;;;17.44;36.04;97206.06;5014413;28;20439;-29
2022/04/29 07:51:02;;;;;;;3.80;1.85;;;;;;;17.97;35.36;97235.31;5014950;28;20065;-29
2022/04/29 07:53:27;;;;;;;4.18;2.10;;;;;;;17.63;35.38;97222.56;5014307;28;20022;-29
2022/04/29 07:55:53;;;;;;;2.67;1.95;;;;;;;17.77;34.85;97222.03;5014450;28;20395;-31
2022/04/29 07:58:18;;;;;;;3.10;1.90;;;;;;;17.70;34.95;97231.28;5014397;28;20029;-30
2022/04/29 08:00:44;;;;;;;3.42;1.95;;;;;;;17.79;34.88;97227.81;5014514;28;20042;-30
2022/04/29 08:03:10;;;;;;;2.72;1.92;;;;;;;17.91;35.13;97213.97;5014328;28;20084;-30
2022/04/29 08:05:35;;;;;;;3.00;1.83;;;;;;;17.67;34.46;97224.00;5012081;28;20030;-31
2022/04/29 08:08:01;;;;;;;2.33;1.83;;;;;;;17.72;34.84;97228.84;5014020;28;20435;-31
2022/04/29 08:10:29;;;;;;;3.65;1.70;;;;;;;16.90;36.02;97222.28;5013679;28;20064;-30
2022/04/29 08:12:59;;;;;;;5.68;2.28;;;;;;;17.24;34.63;97227.63;5013494;28;20033;-31
2022/04/29 08:15:29;;;;;;;4.18;2.08;;;;;;;17.52;36.56;97240.22;5013857;28;20491;-29
2022/04/29 08:17:55;;;;;;;5.15;1.80;;;;;;;17.54;35.55;97232.31;5014273;28;20069;-31
2022/04/29 08:20:21;;;;;;;3.90;2.10;;;;;;;17.53;34.88;97236.25;5013352;28;20088;-29
2022/04/29 08:22:47;;;;;;;2.90;1.92;;;;;;;18.02;34.86;97245.69;5013696;28;20030;-29
2022/04/29 08:25:15;;;;;;;3.83;2.20;;;;;;;17.92;34.87;97240.19;5014037;28;20034;-29
2022/04/29 08:27:41;;;;;;;2.97;1.60;;;;;;;17.94;35.18;97251.47;5013834;28;20044;-29
2022/04/29 08:30:07;;;;;;;3.50;1.73;;;;;;;17.97;34.77;97246.28;5013842;28;20083;-29
2022/04/29 08:32:37;;;;;;;3.58;2.20;;;;;;;18.13;34.53;97240.50;5013729;28;20033;-29
2022/04/29 08:35:03;;;;;;;4.10;2.15;;;;;;;17.74;34.49;97240.16;5013860;28;20539;-29
2022/04/29 08:37:29;;;;;;;3.50;1.92;;;;;;;18.02;34.91;97248.44;5013821;28;20093;-29
2022/04/29 08:39:54;;;;;;;4.07;2.20;;;;;;;17.72;35.46;97250.03;5013045;28;20491;-30
2022/04/29 08:42:20;;;;;;;2.92;1.90;;;;;;;18.05;35.27;97251.00;5013968;28;20042;-29
2022/04/29 08:44:46;;;;;;;3.08;2.03;;;;;;;18.25;35.10;97258.81;5015149;28;20026;-29
2022/04/29 08:47:13;;;;;;;2.78;2.03;;;;;;;18.38;34.99;97242.97;5014890;28;20073;-29
2022/04/29 08:49:39;;;;;;;4.80;1.90;;;;;;;18.24;35.40;97238.06;5015128;28;20018;-30
2022/04/29 08:52:05;;;;;;;4.75;2.20;;;;;;;18.33;34.75;97237.31;5015595;28;20033;-29
2022/04/29 09:00:04;;;;;;;3.75;1.90;;;;;;;18.21;34.43;97239.75;5015441;28;20391;-31
2022/04/29 09:02:36;;;;;;;3.22;1.90;;;;;;;18.44;35.08;97237.59;5015621;28;20534;-29
2022/04/29 09:05:02;;;;;;;3.28;2.05;;;;;;;18.56;35.11;97242.16;5015420;28;20049;-29
2022/04/29 09:07:50;;;;;;;4.45;2.03;;;;;;;18.41;35.07;97244.03;5015332;28;20447;-29
2022/04/29 09:10:16;;;;;;;3.55;1.83;;;;;;;18.38;35.37;97236.72;5015166;28;20022;-29
2022/04/29 09:12:42;;;;;;;2.85;1.60;;;;;;;18.44;34.89;97229.38;5030459;28;20443;-31
2022/04/29 09:15:12;;;;;;;2.40;2.20;;;;;;;18.27;35.48;97226.94;5015163;28;20025;-29
2022/04/29 09:17:39;;;;;;;3.58;2.00;;;;;;;18.41;35.32;97225.56;5030423;28;20373;-30
2022/04/29 09:20:21;;;;;;;2.85;1.90;;;;;;;18.58;35.20;97229.53;5014962;28;20131;-29
2022/04/29 09:22:50;;;;;;;4.15;1.80;;;;;;;18.63;35.27;97239.91;5015009;28;20121;-31
2022/04/29 09:25:17;;;;;;;2.97;1.60;;;;;;;18.55;35.05;97233.16;5014768;28;20057;-30
2022/04/29 09:27:57;;;;;;;2.97;1.90;;;;;;;18.61;35.22;97238.84;5015069;28;20049;-29
2022/04/29 09:30:34;;;;;;;2.33;1.75;;;;;;;18.67;35.22;97235.00;5014752;28;20056;-29
2022/04/29 09:33:00;;;;;;;2.20;2.00;;;;;;;18.33;34.24;97235.31;5014394;28;20547;-31
2022/04/29 09:35:42;;;;;;;2.78;2.20;;;;;;;18.47;35.41;97242.94;5014861;28;20100;-29
2022/04/29 09:41:02;;;;;;;2.97;2.08;;;;;;;18.70;35.01;97230.59;5013587;28;20033;-29
2022/04/29 09:43:34;;;;;;;2.35;2.00;;;;;;;18.70;35.08;97230.59;5014630;28;20030;-29
2022/04/29 09:46:23;;;;;;;4.80;2.28;;;;;;;18.68;34.98;97227.53;5014497;28;20045;-29
2022/04/29 09:49:03;;;;;;;4.28;2.25;;;;;;;18.57;35.27;97232.72;5014202;28;20042;-29
2022/04/29 09:52:04;;;;;;;3.88;2.13;;;;;;;18.57;35.29;97233.47;5014460;28;20030;-29
2022/04/29 09:54:36;;;;;;;3.80;2.20;;;;;;;18.77;34.89;97224.78;5012226;28;20504;-29
2022/04/29 09:57:06;;;;;;;5.20;2.28;;;;;;;18.55;35.12;97219.44;5014319;28;20022;-30
2022/04/29 09:59:38;;;;;;;2.40;2.13;;;;;;;18.67;35.07;97215.00;5014540;28;20075;-29
2022/04/29 10:02:05;;;;;;;5.53;2.07;;;;;;;18.80;35.05;97218.34;5014181;28;20036;-29
2022/04/29 10:04:35;;;;;;;2.95;2.20;;;;;;;18.81;34.91;97214.38;5014154;28;20259;-29
2022/04/29 10:07:04;;;;;;;3.03;2.00;;;;;;;18.82;34.87;97215.91;5014020;28;20096;-29
2022/04/29 10:09:34;;;;;;;2.97;1.95;;;;;;;18.75;35.17;97221.72;5014159;28;20123;-29
2022/04/29 10:12:07;;;;;;;3.97;1.85;;;;;;;18.74;35.26;97219.44;5014117;28;20483;-30
2022/04/29 10:14:36;;;;;;;;;;;;;;;18.71;35.10;97217.63;5014614;28;20022;-29
2022/04/29 10:22:40;;;;;;;3.20;1.85;;;;;;;18.84;34.65;97204.44;5013986;28;20071;-30
2022/04/29 10:25:08;;;;;;;5.72;2.15;;;;;;;18.89;34.79;97204.59;5013937;28;20037;-29
2022/04/29 10:27:36;;;;;;;3.88;2.00;;;;;;;18.82;34.54;97196.66;5013872;28;20029;-29
2022/04/29 10:30:02;;;;;;;3.30;2.00;;;;;;;18.55;34.83;97202.19;5013672;28;20490;-30
2022/04/29 10:32:28;;;;;;;2.55;1.90;;;;;;;18.70;34.71;97188.59;5012507;28;20030;-30
2022/04/29 10:34:55;;;;;;;2.55;1.80;;;;;;;18.77;34.57;97202.81;5013901;28;20033;-29
2022/04/29 10:37:32;;;;;;;3.42;1.85;;;;;;;18.91;34.55;97202.16;5013651;28;20037;-29
2022/04/29 10:40:11;;;;;;;4.22;2.10;;;;;;;18.97;34.61;97194.78;5013684;28;20392;-29
2022/04/29 10:43:06;;;;;;;3.35;1.90;;;;;;;18.87;34.22;97189.78;5012295;28;20026;-29
2022/04/29 10:45:31;;;;;;;3.25;1.90;;;;;;;18.94;34.82;97190.22;5011146;28;20026;-29
2022/04/29 10:47:57;;;;;;;3.55;2.10;;;;;;;19.01;34.69;97200.13;5012867;28;20137;-29
2022/04/29 10:50:31;;;;;;;5.05;1.90;;;;;;;18.90;34.78;97206.13;5013524;28;20029;-29
2022/04/29 10:53:03;;;;;;;3.67;1.90;;;;;;;18.93;34.65;97201.66;5013607;28;20113;-29
2022/04/29 10:55:29;;;;;;;5.13;1.90;;;;;;;18.96;34.56;97190.53;5013490;28;20025;-28
2022/04/29 10:58:04;;;;;;;4.10;1.90;;;;;;;18.91;34.60;97191.16;5013533;28;20022;-30
2022/04/29 11:00:30;;;;;;;3.90;1.88;;;;;;;18.82;34.67;97182.94;5013571;28;20032;-29
2022/04/29 11:03:34;;;;;;;2.30;1.73;;;;;;;18.94;34.59;97168.22;5013274;28;20054;-29
2022/04/29 11:06:07;;;;;;;3.08;1.80;;;;;;;18.94;34.65;97167.47;5013397;28;20073;-29
2022/04/29 11:08:32;;;;;;;2.63;1.70;;;;;;;19.05;34.42;97183.47;5013757;28;20032;-29
2022/04/29 11:10:59;;;;;;;1.90;1.73;;;;;;;19.02;34.53;97180.44;5013323;28;20034;-29
2022/04/29 11:13:27;;;;;;;3.33;2.08;;;;;;;19.10;34.26;97175.34;5013259;28;20022;-29
2022/04/29 11:16:05;;;;;;;2.83;2.15;;;;;;;19.13;34.52;97170.91;5013442;28;20030;-29
2022/04/29 11:18:31;;;;;;;2.95;1.73;;;;;;;19.14;34.47;97170.47;5013433;28;20028;-29
2022/04/29 11:20:59;;;;;;;2.72;2.10;;;;;;;18.84;35.09;97172.25;5013277;28;20403;-29
2022/04/29 11:26:13;;;;;;;2.65;1.70;;;;;;;19.04;34.92;97166.19;5013554;28;20037;-29
2022/04/29 11:28:39;;;;;;;3.08;1.90;;;;;;;19.00;34.60;97157.38;5013367;28;20026;-30
2022/04/29 11:31:10;;;;;;;4.28;1.77;;;;;;;19.04;34.27;97149.69;5013612;28;20032;-29
2022/04/29 11:33:37;;;;;;;3.25;2.00;;;;;;;19.08;34.43;97139.31;5013537;28;20108;-29
2022/04/29 11:36:03;;;;;;;2.65;1.88;;;;;;;19.04;34.62;97144.22;5013442;28;20026;-30
2022/04/29 11:38:30;;;;;;;4.65;2.00;;;;;;;19.16;34.21;97145.25;5013260;28;20026;-31
2022/04/29 11:41:00;;;;;;;3.00;1.95;;;;;;;19.18;34.21;97138.03;5013306;28;20026;-32
2022/04/29 11:43:25;;;;;;;3.47;1.80;;;;;;;19.19;33.92;97147.03;5012923;28;20051;-31
2022/04/29 11:46:06;;;;;;;4.30;1.95;;;;;;;19.18;34.17;97143.53;5012968;28;20105;-30
2022/04/29 11:48:35;;;;;;;3.33;1.73;;;;;;;19.20;34.26;97140.31;5012969;28;20054;-29
2022/04/29 11:51:01;;;;;;;3.47;2.17;;;;;;;19.51;32.84;97137.28;5012908;28;20438;-29
2022/04/29 11:53:27;;;;;;;3.80;2.03;;;;;;;19.35;33.13;97135.66;5012847;28;20029;-29
2022/04/29 11:55:53;;;;;;;2.67;2.10;;;;;;;19.08;34.21;97141.28;5013945;28;20019;-30
2022/04/29 11:58:19;;;;;;;5.10;2.00;;;;;;;19.17;33.99;97125.50;5016409;28;20243;-30
2022/04/29 12:00:55;;;;;;;4.20;2.20;;;;;;;19.22;34.03;97132.38;5016609;28;20018;-29
2022/04/29 12:03:23;;;;;;;4.80;2.10;;;;;;;19.21;33.93;97125.34;5016427;28;20030;-31